Time;durP1;ratioP1;P1;durP2;ratioP2;P2;SDS_P1;SDS_P2;PMS_P1;PMS_P2;Temp;Humidity;BMP_temperature;BMP_pressure;BME280_temperature;BME280_humidity;BME280_pressure;Samples;Min_cycle;Max_cycle;Signal;HPM_P1;HPM_P2
2024/01/31 00:01:19;;;;;;;10.63;8.03;;;8.70;59.90;;;;;;5033102;28;20960;-52
2024/01/31 00:03:46;;;;;;;14.90;7.20;;;8.70;60.00;;;;;;5032344;28;20266;-58
2024/01/31 00:06:14;;;;;;;7.70;6.90;;;8.60;60.70;;;;;;5026495;28;20517;-57
2024/01/31 00:08:41;;;;;;;9.07;7.03;;;8.60;60.40;;;;;;5023849;28;20546;-56
2024/01/31 00:11:08;;;;;;;11.57;8.10;;;8.60;59.80;;;;;;5034656;28;20508;-58
2024/01/31 00:13:35;;;;;;;10.63;7.40;;;8.60;60.50;;;;;;5025934;28;20905;-58
2024/01/31 00:16:02;;;;;;;10.47;7.77;;;8.60;60.30;;;;;;5028183;28;20462;-58
2024/01/31 00:18:29;;;;;;;7.37;6.60;;;8.60;61.50;;;;;;5031510;28;20478;-57
2024/01/31 00:20:55;;;;;;;7.90;6.70;;;8.60;62.60;;;;;;5032537;28;20462;-57
2024/01/31 00:23:23;;;;;;;6.70;5.80;;;8.60;65.10;;;;;;5025042;28;20613;-57
2024/01/31 00:25:50;;;;;;;7.93;6.33;;;8.60;67.30;;;;;;5028796;28;20516;-57
2024/01/31 00:28:17;;;;;;;9.10;6.57;;;8.60;69.50;;;;;;5029797;28;20536;-58
2024/01/31 00:30:44;;;;;;;8.57;5.63;;;8.60;70.90;;;;;;5031152;28;20513;-56
2024/01/31 00:33:11;;;;;;;9.93;6.70;;;8.60;71.40;;;;;;5027740;28;20503;-58
2024/01/31 00:35:37;;;;;;;6.53;5.50;;;8.60;72.90;;;;;;5031138;28;20451;-58
2024/01/31 00:38:04;;;;;;;6.43;5.83;;;8.60;72.80;;;;;;5029542;28;20512;-57
2024/01/31 00:40:32;;;;;;;8.00;6.30;;;8.60;74.20;;;;;;5025612;28;20502;-57
2024/01/31 00:42:59;;;;;;;7.97;6.17;;;8.60;75.10;;;;;;5030320;28;20988;-57
2024/01/31 00:45:26;;;;;;;10.30;5.90;;;8.60;76.00;;;;;;5027745;28;20787;-57
2024/01/31 00:47:52;;;;;;;10.53;6.17;;;8.60;76.70;;;;;;5025558;28;20490;-58
2024/01/31 00:50:19;;;;;;;4.90;4.60;;;8.60;76.90;;;;;;5031425;28;20442;-58
2024/01/31 00:52:46;;;;;;;9.30;5.53;;;8.60;77.20;;;;;;5030890;28;20530;-57
2024/01/31 00:55:12;;;;;;;5.40;4.90;;;8.60;78.20;;;;;;5029172;28;20455;-57
2024/01/31 00:57:40;;;;;;;9.23;5.63;;;8.60;78.40;;;;;;5031163;28;21195;-57
2024/01/31 01:00:09;;;;;;;4.80;4.23;;;8.50;79.50;;;;;;5029633;28;20968;-57
2024/01/31 01:02:35;;;;;;;4.90;4.50;;;8.50;79.70;;;;;;5030618;28;20450;-57
2024/01/31 01:05:02;;;;;;;9.10;4.47;;;8.50;81.80;;;;;;5031071;28;20944;-57
2024/01/31 01:07:28;;;;;;;8.77;4.50;;;8.50;82.80;;;;;;5025387;28;20902;-57
2024/01/31 01:09:55;;;;;;;9.43;4.00;;;8.50;83.30;;;;;;5030681;28;20438;-56
2024/01/31 01:12:21;;;;;;;6.90;4.30;;;8.50;85.60;;;;;;5029149;28;20459;-58
2024/01/31 01:14:49;;;;;;;3.93;3.40;;;8.60;86.10;;;;;;5031068;28;20463;-58
2024/01/31 01:17:16;;;;;;;5.50;3.87;;;8.50;86.50;;;;;;5029608;28;20467;-56
2024/01/31 01:19:42;;;;;;;4.50;4.10;;;8.60;87.70;;;;;;5030498;28;20505;-56
2024/01/31 01:22:09;;;;;;;5.77;4.00;;;8.50;89.30;;;;;;5033713;28;20929;-56
2024/01/31 01:24:35;;;;;;;4.03;3.43;;;8.50;88.90;;;;;;5034508;28;20466;-57
2024/01/31 01:27:02;;;;;;;3.17;2.90;;;8.50;89.20;;;;;;5033786;28;20509;-57
2024/01/31 01:29:29;;;;;;;3.83;3.53;;;8.50;90.20;;;;;;5029837;28;20467;-57
2024/01/31 01:31:57;;;;;;;4.03;3.23;;;8.50;90.10;;;;;;5034410;28;20458;-57
2024/01/31 01:34:23;;;;;;;3.30;3.10;;;8.50;92.60;;;;;;5030934;28;20560;-57
2024/01/31 01:36:50;;;;;;;3.83;3.53;;;8.50;91.50;;;;;;5027938;28;20984;-57
2024/01/31 01:39:17;;;;;;;3.77;3.47;;;8.50;92.00;;;;;;5030564;28;20528;-57
2024/01/31 01:41:48;;;;;;;3.80;3.40;;;8.60;91.80;;;;;;5030474;28;20516;-57
2024/01/31 01:44:15;;;;;;;3.83;3.53;;;8.60;92.30;;;;;;5026770;28;20478;-57
2024/01/31 01:46:43;;;;;;;6.50;3.57;;;8.60;91.60;;;;;;5027513;28;20465;-58
2024/01/31 01:49:12;;;;;;;3.77;3.47;;;8.70;92.20;;;;;;5026959;28;20900;-56
2024/01/31 01:51:40;;;;;;;3.70;3.40;;;8.70;91.20;;;;;;5026778;28;20463;-57
2024/01/31 01:54:12;;;;;;;6.23;3.33;;;8.70;91.10;;;;;;5028124;28;20490;-57
2024/01/31 01:56:39;;;;;;;4.30;3.13;;;8.70;88.50;;;;;;5023732;28;20533;-58
2024/01/31 01:59:05;;;;;;;3.47;3.17;;;8.60;85.20;;;;;;5028289;28;20467;-57
2024/01/31 02:01:33;;;;;;;3.40;3.10;;;8.60;82.80;;;;;;5026445;28;20472;-58
2024/01/31 02:04:00;;;;;;;3.33;3.13;;;8.50;82.30;;;;;;5031400;28;20540;-57
2024/01/31 02:06:28;;;;;;;4.10;3.80;;;8.60;81.20;;;;;;5033944;28;20435;-57
2024/01/31 02:08:55;;;;;;;3.17;2.87;;;8.50;81.10;;;;;;5027941;28;20528;-57
2024/01/31 02:11:21;;;;;;;3.07;2.70;;;8.40;77.50;;;;;;5031281;28;20536;-57
2024/01/31 02:13:48;;;;;;;3.27;3.07;;;8.40;66.90;;;;;;5030001;28;20474;-57
2024/01/31 02:16:15;;;;;;;3.40;3.10;;;8.40;55.60;;;;;;5033515;28;20451;-58
2024/01/31 02:18:42;;;;;;;2.70;2.50;;;8.20;27.90;;;;;;5029156;28;20516;-58
2024/01/31 02:21:08;;;;;;;7.60;3.73;;;8.10;73.60;;;;;;5027913;28;20450;-56
2024/01/31 02:23:36;;;;;;;3.60;3.30;;;8.00;99.90;;;;;;5021946;28;20494;-56
2024/01/31 02:26:03;;;;;;;4.67;3.47;;;7.90;99.90;;;;;;5030686;28;20903;-57
2024/01/31 02:28:30;;;;;;;4.10;3.73;;;7.80;99.90;;;;;;5023561;28;20537;-56
2024/01/31 02:30:58;;;;;;;4.80;3.23;;;7.80;99.90;;;;;;5029880;28;20463;-56
2024/01/31 02:33:24;;;;;;;4.00;3.70;;;7.80;99.90;;;;;;5024353;28;20479;-58
2024/01/31 02:35:51;;;;;;;3.07;2.87;;;7.80;99.90;;;;;;5030965;28;20520;-57
2024/01/31 02:38:18;;;;;;;3.07;2.90;;;7.80;99.90;;;;;;5024679;28;20501;-57
2024/01/31 02:40:45;;;;;;;2.67;2.47;;;7.80;99.90;;;;;;5026360;28;20513;-56
2024/01/31 02:43:12;;;;;;;2.90;2.70;;;7.80;99.90;;;;;;5027853;28;20536;-56
2024/01/31 02:45:39;;;;;;;3.10;2.90;;;7.80;99.90;;;;;;5029178;28;20459;-56
2024/01/31 02:48:08;;;;;;;3.03;2.83;;;7.80;99.90;;;;;;5029106;28;20482;-56
2024/01/31 02:50:34;;;;;;;2.80;2.57;;;7.80;99.90;;;;;;5027746;28;20467;-57
2024/01/31 02:53:01;;;;;;;2.63;2.53;;;7.80;99.90;;;;;;5029389;28;21066;-57
2024/01/31 02:55:28;;;;;;;2.60;2.40;;;7.80;99.90;;;;;;5028293;28;20467;-57
2024/01/31 02:57:56;;;;;;;2.73;2.60;;;7.80;99.90;;;;;;5035610;28;20477;-58
2024/01/31 03:00:22;;;;;;;2.27;2.17;;;7.80;99.90;;;;;;5052012;28;20446;-58
2024/01/31 03:02:49;;;;;;;4.50;2.80;;;7.80;99.90;;;;;;5050928;28;20484;-58
2024/01/31 03:05:15;;;;;;;2.20;2.10;;;7.70;99.90;;;;;;5049798;28;20469;-57
2024/01/31 03:07:42;;;;;;;2.20;2.10;;;7.70;99.90;;;;;;5047302;28;20464;-57
2024/01/31 03:10:09;;;;;;;2.10;2.00;;;7.60;99.90;;;;;;5031019;28;20879;-56
2024/01/31 03:12:36;;;;;;;2.47;2.27;;;7.50;99.90;;;;;;5027846;28;20516;-58
2024/01/31 03:15:04;;;;;;;1.97;1.87;;;7.50;99.90;;;;;;5029423;28;20459;-56
2024/01/31 03:17:35;;;;;;;2.20;2.10;;;7.40;99.90;;;;;;5028746;28;20537;-56
2024/01/31 03:20:02;;;;;;;3.23;2.27;;;7.30;99.90;;;;;;5022671;28;20541;-58
2024/01/31 03:22:28;;;;;;;1.50;1.50;;;7.30;99.90;;;;;;5024493;28;20463;-56
2024/01/31 03:24:55;;;;;;;2.53;2.30;;;7.30;99.90;;;;;;5024213;28;20489;-57
2024/01/31 03:27:22;;;;;;;1.70;1.60;;;7.30;99.90;;;;;;5025902;28;20454;-57
2024/01/31 03:29:48;;;;;;;3.93;2.00;;;7.30;99.90;;;;;;5027590;28;20537;-61
2024/01/31 03:32:16;;;;;;;3.23;1.70;;;7.30;99.90;;;;;;5029798;28;21022;-57
2024/01/31 03:34:43;;;;;;;3.03;1.50;;;7.30;99.90;;;;;;5027239;28;20904;-57
2024/01/31 03:37:09;;;;;;;5.23;2.10;;;7.30;99.90;;;;;;5026965;28;20540;-56
2024/01/31 03:39:36;;;;;;;2.60;1.90;;;7.30;99.90;;;;;;5023229;28;20554;-57
2024/01/31 03:42:02;;;;;;;1.70;1.60;;;7.30;99.90;;;;;;5027392;28;20463;-57
2024/01/31 03:44:29;;;;;;;2.07;1.90;;;7.30;99.90;;;;;;5022455;28;21020;-57
2024/01/31 03:46:55;;;;;;;1.63;1.53;;;7.30;99.90;;;;;;5026960;28;20956;-57
2024/01/31 03:49:23;;;;;;;1.57;1.47;;;7.40;99.90;;;;;;5027363;28;20883;-57
2024/01/31 03:51:50;;;;;;;4.33;1.23;;;7.40;99.90;;;;;;5028675;28;20525;-52
2024/01/31 03:54:16;;;;;;;1.20;1.20;;;7.40;99.90;;;;;;5023776;28;20544;-52
2024/01/31 03:56:43;;;;;;;1.03;1.03;;;7.40;99.90;;;;;;5027282;28;20493;-53
2024/01/31 03:59:10;;;;;;;3.43;1.17;;;7.40;99.90;;;;;;5026488;28;20880;-52
2024/01/31 04:01:36;;;;;;;1.00;1.00;;;7.40;99.90;;;;;;5026236;28;20488;-52
2024/01/31 04:04:03;;;;;;;3.50;1.17;;;7.40;99.90;;;;;;5028672;28;20498;-51
2024/01/31 04:06:31;;;;;;;1.50;1.40;;;7.40;99.90;;;;;;5026342;28;20521;-53
2024/01/31 04:08:58;;;;;;;1.50;1.40;;;7.30;99.90;;;;;;5024725;28;20565;-52
2024/01/31 04:11:24;;;;;;;1.10;1.10;;;7.30;99.90;;;;;;5028030;28;20466;-52
2024/01/31 04:13:51;;;;;;;1.07;1.07;;;7.30;99.90;;;;;;5027809;28;20482;-53
2024/01/31 04:16:17;;;;;;;1.20;1.10;;;7.40;99.90;;;;;;5029851;28;20463;-51
2024/01/31 04:18:44;;;;;;;1.40;1.30;;;7.40;99.90;;;;;;5029373;28;20513;-52
2024/01/31 04:21:11;;;;;;;1.47;1.37;;;7.40;99.90;;;;;;5028299;28;20466;-52
2024/01/31 04:23:39;;;;;;;1.00;1.00;;;7.30;99.90;;;;;;5032761;28;20480;-52
2024/01/31 04:26:05;;;;;;;1.00;1.00;;;7.30;99.90;;;;;;5031960;28;20463;-52
2024/01/31 04:28:32;;;;;;;0.93;0.93;;;7.30;99.90;;;;;;5032305;28;20479;-52
2024/01/31 04:30:59;;;;;;;1.00;1.00;;;7.20;99.90;;;;;;5036824;28;20466;-52
2024/01/31 04:33:25;;;;;;;0.90;0.90;;;7.10;99.90;;;;;;5032521;28;20475;-52
2024/01/31 04:35:52;;;;;;;2.60;0.87;;;7.10;99.90;;;;;;5028106;28;20533;-55
2024/01/31 04:38:19;;;;;;;1.07;0.83;;;7.10;99.90;;;;;;5026213;28;20465;-52
2024/01/31 04:40:47;;;;;;;0.83;0.83;;;7.00;99.90;;;;;;5021392;28;20492;-52
2024/01/31 04:43:16;;;;;;;1.17;0.70;;;6.90;99.90;;;;;;5031186;28;20468;-52
2024/01/31 04:45:43;;;;;;;2.00;0.70;;;6.90;99.90;;;;;;5031358;28;20561;-51
2024/01/31 04:48:10;;;;;;;2.23;0.80;;;6.90;99.90;;;;;;5030914;28;20587;-52
2024/01/31 04:50:36;;;;;;;1.53;0.90;;;6.80;99.90;;;;;;5029890;28;20463;-52
2024/01/31 04:53:03;;;;;;;1.03;0.70;;;6.90;99.90;;;;;;5023382;28;20538;-53
2024/01/31 04:55:29;;;;;;;0.80;0.80;;;6.80;99.90;;;;;;5027147;28;20455;-53
2024/01/31 04:57:57;;;;;;;0.73;0.67;;;6.80;99.90;;;;;;5029881;28;21016;-52
2024/01/31 05:00:24;;;;;;;0.80;0.80;;;6.70;99.90;;;;;;5035320;28;20517;-52
2024/01/31 05:02:51;;;;;;;1.70;1.00;;;6.70;99.90;;;;;;5034280;28;20505;-52
2024/01/31 05:05:19;;;;;;;1.13;0.70;;;6.70;99.90;;;;;;5033306;28;20532;-52
2024/01/31 05:07:45;;;;;;;1.30;0.70;;;6.70;99.90;;;;;;5035121;28;20439;-53
2024/01/31 05:10:12;;;;;;;1.23;0.67;;;6.60;99.90;;;;;;5030412;28;20605;-52
2024/01/31 05:12:39;;;;;;;0.70;0.60;;;6.60;99.90;;;;;;5027227;28;20474;-52
2024/01/31 05:15:08;;;;;;;1.10;0.70;;;6.60;99.90;;;;;;5031395;28;20442;-52
2024/01/31 05:17:34;;;;;;;0.80;0.80;;;6.50;99.90;;;;;;5033961;28;20547;-52
2024/01/31 05:20:02;;;;;;;0.77;0.77;;;6.50;99.90;;;;;;5029124;28;20454;-52
2024/01/31 05:22:29;;;;;;;0.67;0.67;;;6.40;99.90;;;;;;5033956;28;20529;-53
2024/01/31 05:24:55;;;;;;;2.90;0.80;;;6.40;99.90;;;;;;5032125;28;20466;-52
2024/01/31 05:27:22;;;;;;;1.00;0.90;;;6.40;99.90;;;;;;5022165;28;20467;-56
2024/01/31 05:29:48;;;;;;;0.97;0.87;;;6.40;99.90;;;;;;5031962;28;20528;-58
2024/01/31 05:32:16;;;;;;;1.87;0.80;;;6.40;99.90;;;;;;5033186;28;20520;-57
2024/01/31 05:34:44;;;;;;;0.70;0.70;;;6.40;99.90;;;;;;5029408;28;20541;-57
2024/01/31 05:37:10;;;;;;;0.90;0.60;;;6.40;99.90;;;;;;5031136;28;20462;-56
2024/01/31 05:39:37;;;;;;;1.70;0.80;;;6.30;99.90;;;;;;5032063;28;20440;-56
2024/01/31 05:42:04;;;;;;;1.83;0.80;;;6.30;99.90;;;;;;5028469;28;20462;-57
2024/01/31 05:44:31;;;;;;;1.23;0.60;;;6.20;99.90;;;;;;5033272;28;20532;-57
2024/01/31 05:46:57;;;;;;;0.90;0.50;;;6.20;99.90;;;;;;5047398;28;20435;-63
2024/01/31 05:49:25;;;;;;;3.27;0.70;;;6.20;99.90;;;;;;5045732;28;20483;-57
2024/01/31 05:51:52;;;;;;;0.90;0.60;;;6.20;99.90;;;;;;5043610;28;20463;-57
2024/01/31 05:54:19;;;;;;;0.90;0.67;;;6.10;99.90;;;;;;5049775;28;20490;-59
2024/01/31 05:56:46;;;;;;;0.80;0.57;;;6.20;99.20;;;;;;5037389;28;20454;-56
2024/01/31 05:59:12;;;;;;;0.70;0.70;;;6.10;20.50;;;;;;5034404;28;20925;-58
2024/01/31 06:01:39;;;;;;;0.80;0.80;;;6.10;26.10;;;;;;5029670;28;20493;-57
2024/01/31 06:04:08;;;;;;;0.60;0.60;;;6.00;28.30;;;;;;5033419;28;20548;-57
2024/01/31 06:07:00;;;;;;;1.03;0.90;;;5.90;26.50;;;;;;5032100;28;20545;-57
2024/01/31 06:09:33;;;;;;;2.43;1.00;;;5.90;29.20;;;;;;5025495;28;20565;-58
2024/01/31 06:12:00;;;;;;;1.63;0.70;;;5.90;32.00;;;;;;5031657;28;20537;-58
2024/01/31 06:14:27;;;;;;;1.13;0.60;;;5.90;31.20;;;;;;5026512;28;20482;-57
2024/01/31 06:16:53;;;;;;;0.90;0.57;;;5.80;32.10;;;;;;5033116;28;20435;-56
2024/01/31 06:19:20;;;;;;;4.00;0.60;;;5.90;31.40;;;;;;5031697;28;20459;-57
2024/01/31 06:21:46;;;;;;;0.87;0.53;;;5.80;38.10;;;;;;5023827;28;20521;-58
2024/01/31 06:24:14;;;;;;;0.87;0.80;;;5.80;40.70;;;;;;5028161;28;20486;-58
2024/01/31 06:26:42;;;;;;;1.17;0.77;;;5.80;46.30;;;;;;5032166;28;20609;-58
2024/01/31 06:29:11;;;;;;;0.83;0.60;;;5.80;47.90;;;;;;5027655;28;20482;-56
2024/01/31 06:31:46;;;;;;;0.93;0.93;;;5.80;44.40;;;;;;5032904;28;20470;-56
2024/01/31 06:34:12;;;;;;;0.80;0.80;;;5.80;48.60;;;;;;5032776;28;20478;-57
2024/01/31 06:36:39;;;;;;;0.70;0.60;;;5.70;48.30;;;;;;5032983;28;20521;-57
2024/01/31 06:39:05;;;;;;;0.93;0.70;;;5.70;46.10;;;;;;5027665;28;20953;-53
2024/01/31 06:41:35;;;;;;;0.60;0.60;;;5.70;45.10;;;;;;5033124;28;20660;-52
2024/01/31 06:44:01;;;;;;;0.90;0.77;;;5.60;46.70;;;;;;5030015;28;20479;-52
2024/01/31 06:46:28;;;;;;;0.90;0.77;;;5.60;44.50;;;;;;5029888;28;20867;-51
2024/01/31 06:48:54;;;;;;;3.47;1.07;;;5.60;45.90;;;;;;5034458;28;20446;-52
2024/01/31 06:51:21;;;;;;;0.60;0.57;;;5.50;39.30;;;;;;5026932;28;20462;-51
2024/01/31 06:53:47;;;;;;;3.80;0.70;;;5.50;40.50;;;;;;5030108;28;21047;-51
2024/01/31 06:56:16;;;;;;;2.20;0.70;;;5.40;41.60;;;;;;5036209;28;20534;-51
2024/01/31 06:58:45;;;;;;;0.80;0.57;;;5.40;50.60;;;;;;5024689;28;20463;-53
2024/01/31 07:01:14;;;;;;;0.50;0.50;;;5.50;51.70;;;;;;5025098;28;20533;-51
2024/01/31 07:03:41;;;;;;;0.70;0.70;;;5.50;56.90;;;;;;5026526;28;20609;-52
2024/01/31 07:06:08;;;;;;;0.80;0.80;;;5.50;63.50;;;;;;5027992;28;20533;-52
2024/01/31 07:08:34;;;;;;;0.83;0.83;;;5.50;60.30;;;;;;5028335;28;20509;-52
2024/01/31 07:11:01;;;;;;;2.20;1.57;;;5.50;58.30;;;;;;5034636;28;20479;-52
2024/01/31 07:13:27;;;;;;;2.30;1.03;;;5.50;56.10;;;;;;5028959;28;20491;-51
2024/01/31 07:15:55;;;;;;;1.33;0.87;;;5.40;50.60;;;;;;5023689;28;20451;-52
2024/01/31 07:18:22;;;;;;;0.70;0.50;;;5.40;43.70;;;;;;5026370;28;20509;-52
2024/01/31 07:20:48;;;;;;;0.60;0.60;;;5.40;34.60;;;;;;5026427;28;20539;-52
2024/01/31 07:23:15;;;;;;;2.83;0.93;;;5.40;28.70;;;;;;5025966;28;20483;-52
2024/01/31 07:25:41;;;;;;;1.00;1.00;;;5.30;83.00;;;;;;5029445;28;20467;-53
2024/01/31 07:28:08;;;;;;;0.73;0.73;;;5.30;99.90;;;;;;5026391;28;21035;-53
2024/01/31 07:30:34;;;;;;;1.00;1.00;;;5.30;99.90;;;;;;5025748;28;20490;-51
2024/01/31 07:33:02;;;;;;;1.33;0.80;;;5.20;99.90;;;;;;5025968;28;20900;-52
2024/01/31 07:35:29;;;;;;;0.73;0.73;;;5.10;99.90;;;;;;5030958;28;20459;-51
2024/01/31 07:37:56;;;;;;;1.50;0.90;;;5.20;99.90;;;;;;5023421;28;20472;-53
2024/01/31 07:40:22;;;;;;;2.00;0.90;;;5.20;99.90;;;;;;5028256;28;20458;-51
2024/01/31 07:42:49;;;;;;;4.10;1.00;;;5.20;99.90;;;;;;5027413;28;20480;-52
2024/01/31 07:45:16;;;;;;;1.83;1.10;;;5.20;99.90;;;;;;5025223;28;20520;-52
2024/01/31 07:47:42;;;;;;;3.77;1.03;;;5.20;99.90;;;;;;5024271;28;20835;-51
2024/01/31 07:50:10;;;;;;;2.13;1.00;;;5.20;99.90;;;;;;5027290;28;20540;-51
2024/01/31 07:52:37;;;;;;;1.47;1.37;;;5.30;99.90;;;;;;5026667;28;20459;-52
2024/01/31 07:55:06;;;;;;;2.40;1.33;;;5.10;99.90;;;;;;5026629;28;20463;-53
2024/01/31 07:57:33;;;;;;;1.37;1.30;;;5.20;99.90;;;;;;5027473;28;20450;-52
2024/01/31 07:59:58;;;;;;;1.67;1.57;;;5.20;99.90;;;;;;5020398;28;20926;-52
2024/01/31 08:02:25;;;;;;;1.50;1.40;;;5.30;99.90;;;;;;5024081;28;20451;-52
2024/01/31 08:04:54;;;;;;;1.53;1.40;;;5.30;99.90;;;;;;5026994;28;20228;-52
2024/01/31 08:07:22;;;;;;;1.67;1.50;;;5.30;99.90;;;;;;5024863;28;20459;-52
2024/01/31 08:09:49;;;;;;;3.07;1.10;;;5.40;75.40;;;;;;5027879;28;20874;-53
2024/01/31 08:12:15;;;;;;;1.43;1.33;;;5.40;23.40;;;;;;5026329;28;21150;-52
2024/01/31 08:14:42;;;;;;;1.37;1.30;;;5.40;27.30;;;;;;5018553;28;20577;-51
2024/01/31 08:17:08;;;;;;;1.57;1.40;;;5.40;22.80;;;;;;5024387;28;20543;-51
2024/01/31 08:19:35;;;;;;;3.03;1.70;;;5.40;28.20;;;;;;5020005;28;20529;-51
2024/01/31 08:22:02;;;;;;;1.83;1.73;;;5.50;29.40;;;;;;5021359;28;20454;-51
2024/01/31 08:24:29;;;;;;;1.67;1.20;;;5.40;36.90;;;;;;5026449;28;21070;-51
2024/01/31 08:26:56;;;;;;;1.47;1.37;;;5.60;37.80;;;;;;5025953;28;20521;-51
2024/01/31 08:29:23;;;;;;;1.10;1.10;;;5.80;48.20;;;;;;5024438;28;20498;-51
2024/01/31 08:31:49;;;;;;;0.90;0.90;;;5.80;52.20;;;;;;5028810;28;20462;-51
2024/01/31 08:34:17;;;;;;;0.90;0.90;;;5.70;49.10;;;;;;5026286;28;20509;-52
2024/01/31 08:36:43;;;;;;;1.57;1.47;;;5.60;44.00;;;;;;5029652;28;20454;-53
2024/01/31 08:39:10;;;;;;;1.33;1.00;;;5.70;42.40;;;;;;5024613;28;20513;-54
2024/01/31 08:41:38;;;;;;;2.30;0.90;;;5.70;41.50;;;;;;5028300;28;20458;-52
2024/01/31 08:44:04;;;;;;;1.47;0.83;;;5.40;41.70;;;;;;5029607;28;20478;-52
2024/01/31 08:46:31;;;;;;;1.20;1.20;;;5.40;41.70;;;;;;5031491;28;21138;-52
2024/01/31 08:48:58;;;;;;;0.90;0.90;;;5.50;36.90;;;;;;5031975;28;20467;-52
2024/01/31 08:51:24;;;;;;;3.93;1.00;;;5.40;31.30;;;;;;5029660;28;20873;-52
2024/01/31 08:53:51;;;;;;;1.23;0.90;;;5.40;22.60;;;;;;5031356;28;20479;-52
2024/01/31 08:56:17;;;;;;;1.43;1.17;;;5.30;92.90;;;;;;5039819;28;20458;-52
2024/01/31 08:58:45;;;;;;;2.70;1.17;;;5.30;99.90;;;;;;5052884;28;20458;-53
2024/01/31 09:01:12;;;;;;;1.80;0.90;;;5.30;99.90;;;;;;5049506;28;20455;-52
2024/01/31 09:03:39;;;;;;;1.60;1.10;;;5.30;99.90;;;;;;5049788;28;20478;-52
2024/01/31 09:06:06;;;;;;;1.20;1.10;;;5.40;35.00;;;;;;5046741;28;20463;-51
2024/01/31 09:08:33;;;;;;;1.07;1.07;;;5.40;35.90;;;;;;5038337;28;20465;-52
2024/01/31 09:11:02;;;;;;;2.80;1.23;;;5.20;35.10;;;;;;5028249;28;20474;-51
2024/01/31 09:13:30;;;;;;;1.07;1.00;;;5.40;24.10;;;;;;5039603;28;20482;-51
2024/01/31 09:15:59;;;;;;;1.53;1.30;;;5.30;99.90;;;;;;5033411;28;20462;-51
2024/01/31 09:18:25;;;;;;;1.37;1.27;;;5.30;99.90;;;;;;5030959;28;20460;-51
2024/01/31 09:20:52;;;;;;;1.70;1.37;;;5.30;99.90;;;;;;5032229;28;20458;-53
2024/01/31 09:23:19;;;;;;;1.20;1.10;;;5.30;99.90;;;;;;5026696;28;20482;-50
2024/01/31 09:25:45;;;;;;;1.30;1.20;;;5.30;99.90;;;;;;5029439;28;20467;-51
2024/01/31 09:28:12;;;;;;;1.50;1.40;;;5.30;99.90;;;;;;5026707;28;20781;-51
2024/01/31 09:30:39;;;;;;;1.33;1.20;;;5.00;99.90;;;;;;5032514;28;20519;-52
2024/01/31 09:33:06;;;;;;;2.80;1.00;;;5.20;99.90;;;;;;5031102;28;20493;-53
2024/01/31 09:35:33;;;;;;;1.27;1.10;;;5.40;99.90;;;;;;5023127;28;20466;-50
2024/01/31 09:38:00;;;;;;;2.00;1.40;;;5.60;80.80;;;;;;5028465;28;20529;-50
2024/01/31 09:40:26;;;;;;;3.80;1.30;;;5.50;28.20;;;;;;5029637;28;20458;-51
2024/01/31 09:42:55;;;;;;;1.50;1.33;;;5.60;44.10;;;;;;5032592;28;20512;-51
2024/01/31 09:45:22;;;;;;;1.20;1.00;;;5.80;46.50;;;;;;5031405;28;20476;-51
2024/01/31 09:47:50;;;;;;;1.10;1.00;;;6.20;61.40;;;;;;5025471;28;20467;-51
2024/01/31 09:50:19;;;;;;;1.23;1.10;;;6.00;78.00;;;;;;5026640;28;20474;-51
2024/01/31 09:52:52;;;;;;;2.00;0.90;;;6.20;89.20;;;;;;5027219;28;21016;-52
2024/01/31 09:55:20;;;;;;;1.00;0.90;;;6.60;99.90;;;;;;5031958;28;20540;-52
2024/01/31 09:57:47;;;;;;;3.33;1.10;;;7.80;99.90;;;;;;5027376;28;20463;-52
2024/01/31 10:00:14;;;;;;;1.37;1.30;;;6.90;99.90;;;;;;5031026;28;20469;-53
2024/01/31 10:02:41;;;;;;;1.70;1.37;;;8.00;99.90;;;;;;5025718;28;20499;-52
2024/01/31 10:05:08;;;;;;;4.73;2.00;;;7.70;99.90;;;;;;5025181;28;20551;-52
2024/01/31 10:07:39;;;;;;;3.80;2.10;;;8.10;99.90;;;;;;5028047;28;20466;-52
2024/01/31 10:10:06;;;;;;;4.10;1.90;;;7.80;99.90;;;;;;5026316;28;20486;-51
2024/01/31 10:12:33;;;;;;;3.83;2.00;;;7.00;99.90;;;;;;5026800;28;20463;-52
2024/01/31 10:14:59;;;;;;;2.70;1.90;;;8.30;99.90;;;;;;5025213;28;20471;-51
2024/01/31 10:17:26;;;;;;;5.87;2.00;;;8.20;99.90;;;;;;5029981;28;20524;-50
2024/01/31 10:19:53;;;;;;;2.20;1.70;;;7.70;99.90;;;;;;5026221;28;20525;-51
2024/01/31 10:22:19;;;;;;;3.70;1.60;;;7.20;99.90;;;;;;5026085;28;20929;-50
2024/01/31 10:24:50;;;;;;;2.07;1.67;;;6.80;99.90;;;;;;5024837;28;20479;-53
2024/01/31 10:27:20;;;;;;;5.30;2.10;;;6.60;99.90;;;;;;5024043;28;20468;-52
2024/01/31 10:29:46;;;;;;;7.10;2.97;;;6.60;99.90;;;;;;5024258;28;20469;-52
2024/01/31 10:32:16;;;;;;;3.57;2.23;;;6.60;99.90;;;;;;5024204;28;20482;-51
2024/01/31 10:34:43;;;;;;;4.73;2.40;;;6.30;99.90;;;;;;5028595;28;20527;-51
2024/01/31 10:37:11;;;;;;;4.63;1.80;;;5.90;99.90;;;;;;5030042;28;20516;-51
2024/01/31 10:39:39;;;;;;;8.23;2.30;;;5.80;99.90;;;;;;5030025;28;21014;-52
2024/01/31 10:42:08;;;;;;;3.53;1.90;;;5.70;99.90;;;;;;5024763;28;20597;-51
2024/01/31 10:44:36;;;;;;;6.10;1.97;;;5.60;99.90;;;;;;5027628;28;20590;-50
2024/01/31 10:47:03;;;;;;;4.37;1.60;;;5.70;99.90;;;;;;5030797;28;20493;-51
2024/01/31 10:49:30;;;;;;;8.37;2.40;;;5.70;99.90;;;;;;5029352;28;20514;-52
2024/01/31 10:51:59;;;;;;;7.83;2.03;;;5.60;99.90;;;;;;5029351;28;20482;-51
2024/01/31 10:54:28;;;;;;;4.03;2.13;;;5.60;99.90;;;;;;5022738;28;20572;-50
2024/01/31 10:56:56;;;;;;;6.30;2.50;;;5.70;99.90;;;;;;5023017;28;21003;-51
2024/01/31 10:59:24;;;;;;;5.70;2.33;;;5.80;99.90;;;;;;5025887;28;20459;-50
2024/01/31 11:01:52;;;;;;;6.37;2.90;;;5.80;99.90;;;;;;5027171;28;20466;-50
2024/01/31 11:04:19;;;;;;;6.67;2.10;;;5.70;99.90;;;;;;5028245;28;20573;-52
2024/01/31 11:06:49;;;;;;;4.70;2.67;;;5.70;99.90;;;;;;5027305;28;20487;-52
2024/01/31 11:09:22;;;;;;;12.27;7.10;;;5.70;99.90;;;;;;5025846;28;20450;-51
2024/01/31 11:11:49;;;;;;;12.90;4.10;;;5.70;99.90;;;;;;5026860;28;20493;-55
2024/01/31 11:14:16;;;;;;;8.50;2.50;;;5.70;99.90;;;;;;5028172;28;20537;-55
2024/01/31 11:16:44;;;;;;;8.87;2.80;;;5.50;99.90;;;;;;5027882;28;20972;-55
2024/01/31 11:19:20;;;;;;;6.10;2.30;;;5.60;99.90;;;;;;5020818;28;20475;-55
2024/01/31 11:21:46;;;;;;;9.57;2.73;;;5.60;99.90;;;;;;5018153;28;20458;-55
2024/01/31 11:24:14;;;;;;;10.80;2.73;;;5.70;99.90;;;;;;5027017;28;20478;-58
2024/01/31 11:26:41;;;;;;;9.60;2.37;;;5.70;99.90;;;;;;5027598;28;20469;-56
2024/01/31 11:29:08;;;;;;;6.90;2.20;;;5.60;99.90;;;;;;5027522;28;21019;-58
2024/01/31 11:31:35;;;;;;;11.53;2.40;;;5.60;99.90;;;;;;5024670;28;20478;-57
2024/01/31 11:34:03;;;;;;;4.57;2.00;;;5.70;99.90;;;;;;5023138;28;20478;-57
2024/01/31 11:36:30;;;;;;;3.77;1.67;;;5.50;99.90;;;;;;5022247;28;20466;-57
2024/01/31 11:38:56;;;;;;;10.43;1.80;;;5.60;99.90;;;;;;5025653;28;20459;-56
2024/01/31 11:41:23;;;;;;;4.10;2.10;;;5.60;99.90;;;;;;5020905;28;20480;-55
2024/01/31 11:43:50;;;;;;;3.90;2.03;;;5.60;99.90;;;;;;5026606;28;20520;-57
2024/01/31 11:46:17;;;;;;;6.10;2.30;;;5.70;99.90;;;;;;5031324;28;20447;-57
2024/01/31 11:48:43;;;;;;;7.30;1.93;;;5.80;99.90;;;;;;5027752;28;20887;-57
2024/01/31 11:51:12;;;;;;;9.53;1.87;;;5.70;99.90;;;;;;5032884;28;20532;-57
2024/01/31 11:53:38;;;;;;;4.80;1.73;;;5.70;99.90;;;;;;5029796;28;20568;-56
2024/01/31 11:56:06;;;;;;;3.90;2.13;;;5.70;99.90;;;;;;5031462;28;20454;-59
2024/01/31 11:58:35;;;;;;;10.40;2.50;;;5.80;99.90;;;;;;5023730;28;20459;-56
2024/01/31 12:01:02;;;;;;;8.30;2.67;;;5.80;99.90;;;;;;5026729;28;20451;-56
2024/01/31 12:03:29;;;;;;;5.27;1.60;;;5.90;99.90;;;;;;5026402;28;20914;-56
2024/01/31 12:05:57;;;;;;;5.80;1.80;;;5.90;99.90;;;;;;5022014;28;20942;-57
2024/01/31 12:08:27;;;;;;;9.27;2.20;;;5.80;99.90;;;;;;5018761;28;20459;-56
2024/01/31 12:10:54;;;;;;;4.90;2.30;;;5.90;99.90;;;;;;5020002;28;20545;-57
2024/01/31 12:13:21;;;;;;;10.60;1.93;;;5.80;99.90;;;;;;5023986;28;20486;-57
2024/01/31 12:15:48;;;;;;;8.67;1.90;;;5.80;99.90;;;;;;5026756;28;20784;-56
2024/01/31 12:18:15;;;;;;;9.70;2.40;;;5.70;99.90;;;;;;5027250;28;20491;-55
2024/01/31 12:20:41;;;;;;;3.07;1.80;;;5.70;99.90;;;;;;5029235;28;20495;-56
2024/01/31 12:23:08;;;;;;;7.93;2.40;;;5.70;99.90;;;;;;5024553;28;20515;-57
2024/01/31 12:25:36;;;;;;;4.87;1.20;;;5.70;99.90;;;;;;5027584;28;21016;-55
2024/01/31 12:28:03;;;;;;;10.83;2.37;;;5.70;99.90;;;;;;5025653;28;20467;-56
2024/01/31 12:30:29;;;;;;;9.40;2.37;;;5.70;99.90;;;;;;5027580;28;20889;-57
2024/01/31 12:32:56;;;;;;;5.40;2.63;;;5.70;99.90;;;;;;5024865;28;20487;-57
2024/01/31 12:35:22;;;;;;;4.30;2.17;;;5.60;99.90;;;;;;5023804;28;20544;-57
2024/01/31 12:37:49;;;;;;;8.03;2.50;;;5.70;99.90;;;;;;5026541;28;20869;-57
2024/01/31 12:40:16;;;;;;;5.43;2.03;;;5.80;99.90;;;;;;5028560;28;20459;-57
2024/01/31 12:42:44;;;;;;;2.70;2.00;;;5.80;99.90;;;;;;5025646;28;20455;-55
2024/01/31 12:45:11;;;;;;;8.33;2.40;;;5.70;99.90;;;;;;5023002;28;20458;-56
2024/01/31 12:47:37;;;;;;;14.70;2.40;;;5.80;99.90;;;;;;5022558;28;20566;-58
2024/01/31 12:50:06;;;;;;;9.50;3.30;;;5.90;99.90;;;;;;5026575;28;20517;-57
2024/01/31 12:52:33;;;;;;;4.93;1.87;;;5.90;99.90;;;;;;5025880;28;20490;-57
2024/01/31 12:54:59;;;;;;;11.77;2.30;;;5.90;99.90;;;;;;5027013;28;20462;-57